Mendocino — WDB9115 — position and weather

sailwx.info

Track history (hours):
 
Tides and Currents Weather Stations Pressure Air Temp Water Temp Dewpoint Dewpoint Depression Visibility Wind Speed Wind Dir Waves Ship Positions

Mendocino

Owner: Golden Gate Bridge Hwy & Transp Dist., Larkspur, CA. More information available from US FCC via Universal Licensing System and Coast Guard Vessel Documentation Center.

Last reported at 2017-Oct-19 16:31 UTC. Time now 2017-Oct-19 16:56 UTC.
Position N 37°48' W 122°24'.

Length 48 m.

Type: Ship. MMSI: 366970020.

Date/timePositionNaut miles runAvg speedWind from/ knotsBaromVisibWave heightAir tempDewpointWater temp
2017-Oct-19 16:31N 37°48' W 122°24'918.2
2017-Oct-19 16:01N 37°56' W 122°29'0 0.5
2017-Oct-19 15:30N 37°56' W 122°28'917.7
2017-Oct-19 15:01N 37°48' W 122°23'1020.2
2017-Oct-19 14:30N 37°57' W 122°30'0 0.1
2017-Oct-19 14:00N 37°57' W 122°31'0 0.0
2017-Oct-19 00:59N 37°57' W 122°30'1021.5
2017-Oct-19 00:30N 37°48' W 122°24'1 2.8
2017-Oct-19 00:01N 37°49' W 122°24'918.5
2017-Oct-18 23:30N 37°57' W 122°30'1020.9
2017-Oct-18 23:00N 37°48' W 122°24'4 7.8
2017-Oct-18 22:31N 37°52' W 122°25'710.6
2017-Oct-18 21:51N 37°57' W 122°31'0 0.0
2017-Oct-18 21:28N 37°57' W 122°31'0 0.0
2017-Oct-18 20:51N 37°57' W 122°31'0 0.0
2017-Oct-18 20:30N 37°57' W 122°31'0 0.0
2017-Oct-18 16:57N 37°57' W 122°31'920.7
2017-Oct-18 16:31N 37°49' W 122°24'611.9
2017-Oct-18 16:00N 37°55' W 122°27'1 2.8
2017-Oct-18 15:31N 37°56' W 122°28'917.5
2017-Oct-18 15:01N 37°48' W 122°23'1110.5
2017-Oct-18 14:00N 37°57' W 122°31'0 0.0
2017-Oct-18 01:22N 37°57' W 122°31'0 0.2
2017-Oct-18 01:00N 37°57' W 122°30'918.7
2017-Oct-18 00:31N 37°49' W 122°23'0 1.0
2017-Oct-18 00:01N 37°49' W 122°24'918.4
2017-Oct-17 23:30N 37°57' W 122°30'1021.0
2017-Oct-17 23:01N 37°48' W 122°24'0 0.9
2017-Oct-17 22:30N 37°48' W 122°23'1020.2
2017-Oct-17 22:00N 37°57' W 122°30'0 0.4
2017-Oct-17 21:30N 37°57' W 122°30'0 0.0
2017-Oct-17 21:00N 37°57' W 122°30'1020.8
2017-Oct-17 20:31N 37°48' W 122°23'4 8.6
2017-Oct-17 20:01N 37°52' W 122°25'612.5
2017-Oct-17 19:30N 37°57' W 122°30'0 0.0
2017-Oct-17 19:00N 37°57' W 122°30'0 0.0
2017-Oct-17 18:30N 37°57' W 122°30'1021.0
2017-Oct-17 18:00N 37°48' W 122°24'611.1
2017-Oct-17 17:31N 37°53' W 122°26'510.4
2017-Oct-17 17:00N 37°57' W 122°30'816.5
2017-Oct-17 16:31N 37°50' W 122°24'4 8.5
2017-Oct-17 16:01N 37°54' W 122°27'3 6.8
2017-Oct-17 15:30N 37°56' W 122°30'1019.9
2017-Oct-17 15:01N 37°48' W 122°24'1020.7
2017-Oct-17 14:30N 37°57' W 122°30'0 0.1
2017-Oct-17 14:00N 37°57' W 122°31'0 0.1
2017-Oct-17 13:31N 37°57' W 122°31'0 0.0
2017-Oct-17 13:00N 37°57' W 122°31'0 0.0
2017-Oct-17 12:30N 37°57' W 122°31'0 0.0
2017-Oct-17 12:00N 37°57' W 122°31'0 0.0
2017-Oct-17 11:30N 37°57' W 122°31'0 0.0
2017-Oct-17 11:00N 37°57' W 122°31'0 0.0
2017-Oct-17 10:30N 37°57' W 122°31'0 0.0
2017-Oct-17 10:01N 37°57' W 122°31'0 0.0
2017-Oct-17 09:31N 37°57' W 122°31'0 0.0
2017-Oct-17 09:00N 37°57' W 122°31'0 0.0
2017-Oct-17 08:30N 37°57' W 122°31'0 0.0
2017-Oct-17 08:01N 37°57' W 122°31'0 0.0
2017-Oct-17 07:31N 37°57' W 122°31'0 0.0
2017-Oct-17 07:00N 37°57' W 122°31'0 0.0
2017-Oct-17 06:30N 37°57' W 122°31'0 0.0
2017-Oct-17 06:00N 37°57' W 122°31'0 0.0
2017-Oct-17 05:30N 37°57' W 122°31'0 0.0
2017-Oct-17 05:00N 37°57' W 122°31'0 0.0
2017-Oct-17 04:30N 37°57' W 122°31'0 0.0
2017-Oct-17 04:00N 37°57' W 122°31'0 0.0
2017-Oct-17 03:30N 37°57' W 122°31'0 0.0
2017-Oct-17 03:01N 37°57' W 122°31'0 0.0
2017-Oct-17 02:30N 37°57' W 122°31'0 0.0
2017-Oct-17 02:00N 37°57' W 122°31'0 0.0
2017-Oct-17 01:30N 37°57' W 122°31'0 0.1
2017-Oct-17 01:00N 37°57' W 122°30'1019.7
2017-Oct-17 00:31N 37°49' W 122°23'1 2.6
2017-Oct-17 00:01N 37°50' W 122°24'816.7
2017-Oct-16 23:30N 37°57' W 122°30'1020.6
2017-Oct-16 23:01N 37°48' W 122°24'918.0
2017-Oct-16 22:31N 37°56' W 122°29'2 3.6
2017-Oct-16 22:00N 37°57' W 122°31'0 0.0
2017-Oct-16 21:30N 37°57' W 122°31'0 0.0
2017-Oct-16 21:01N 37°57' W 122°31'0 0.0
2017-Oct-16 20:30N 37°57' W 122°31'0 0.0
2017-Oct-16 20:00N 37°57' W 122°31'0 0.0
2017-Oct-16 19:30N 37°57' W 122°31'0 0.0
2017-Oct-16 19:00N 37°57' W 122°31'0 0.0
2017-Oct-16 18:30N 37°57' W 122°31'0 0.0
2017-Oct-16 18:00N 37°57' W 122°31'0 0.1
2017-Oct-16 17:30N 37°57' W 122°30'611.6
2017-Oct-16 17:01N 37°53' W 122°25'611.2
2017-Oct-16 16:31N 37°47' W 122°23'816.4
2017-Oct-16 16:01N 37°55' W 122°28'2 4.7
2017-Oct-16 15:31N 37°56' W 122°30'1019.7
2017-Oct-16 15:01N 37°48' W 122°23'1010.5
2017-Oct-16 14:00N 37°57' W 122°31'  
2017-Oct-14 04:34N 37°57' W 122°31'0 0.0
2017-Oct-14 04:30N 37°57' W 122°31'0 0.2
2017-Oct-14 04:00N 37°57' W 122°30'0 0.1
2017-Oct-14 03:31N 37°57' W 122°31'0 0.0
2017-Oct-14 03:01N 37°57' W 122°31'0 0.0
2017-Oct-14 02:31N 37°57' W 122°31'0 0.0
2017-Oct-14 02:00N 37°57' W 122°31'0 0.0
2017-Oct-14 01:30N 37°57' W 122°31'0 0.5
2017-Oct-14 01:00N 37°57' W 122°30'1020.6
2017-Oct-14 00:30N 37°48' W 122°24'611.5
2017-Oct-14 00:00N 37°53' W 122°26'5 8.9
2017-Oct-13 23:29N 37°56' W 122°30'1021.1
2017-Oct-13 23:00N 37°48' W 122°24'917.8
2017-Oct-13 22:31N 37°56' W 122°28'2 3.7
2017-Oct-13 22:00N 37°57' W 122°30'0 0.2
2017-Oct-13 21:30N 37°57' W 122°31'0 0.0
2017-Oct-13 21:00N 37°57' W 122°31'0 0.0
2017-Oct-13 20:30N 37°57' W 122°31'0 0.0
2017-Oct-13 20:00N 37°57' W 122°31'0 0.0
2017-Oct-13 19:30N 37°57' W 122°31'0 0.0
2017-Oct-13 19:00N 37°57' W 122°31'0 0.0
2017-Oct-13 18:30N 37°57' W 122°31'0 0.0
2017-Oct-13 18:00N 37°57' W 122°31'0 0.1
2017-Oct-13 17:30N 37°57' W 122°30'0 0.1
2017-Oct-13 17:00N 37°57' W 122°31'917.5
2017-Oct-13 16:31N 37°50' W 122°24'510.7
2017-Oct-13 16:01N 37°55' W 122°27'3 5.4
2017-Oct-13 15:30N 37°56' W 122°30'1020.2
2017-Oct-13 15:00N 37°48' W 122°24'1021.0
2017-Oct-13 14:30N 37°57' W 122°30'0 0.0
2017-Oct-13 01:15N 37°57' W 122°31'0 0.3
2017-Oct-13 01:00N 37°57' W 122°30'1021.0
2017-Oct-13 00:31N 37°48' W 122°24'3 6.2
2017-Oct-13 00:01N 37°51' W 122°24'814.9
2017-Oct-12 23:30N 37°57' W 122°30'1021.2
2017-Oct-12 23:01N 37°48' W 122°24'611.4
2017-Oct-12 22:31N 37°53' W 122°26'510.1
2017-Oct-12 22:00N 37°57' W 122°30'0 0.2
2017-Oct-12 21:30N 37°57' W 122°31'0 0.0
2017-Oct-12 20:58N 37°57' W 122°31'0 0.0
2017-Oct-12 20:30N 37°57' W 122°31'0 0.0
2017-Oct-12 20:00N 37°57' W 122°31'0 0.0
2017-Oct-12 19:30N 37°57' W 122°31'0 0.0
2017-Oct-12 19:00N 37°57' W 122°31'0 0.0
2017-Oct-12 18:30N 37°57' W 122°31'0 0.0
2017-Oct-12 18:00N 37°57' W 122°31'0 0.1
2017-Oct-12 17:30N 37°57' W 122°30'0 0.1
2017-Oct-12 17:00N 37°57' W 122°31'1020.0
2017-Oct-12 16:31N 37°49' W 122°23'714.5
2017-Oct-12 16:01N 37°55' W 122°28'2 4.7
2017-Oct-12 15:30N 37°56' W 122°30'1020.0
2017-Oct-12 15:00N 37°48' W 122°24'1020.9
2017-Oct-12 14:30N 37°57' W 122°30'0 0.1
2017-Oct-12 14:00N 37°57' W 122°31'0 0.0
2017-Oct-12 02:52N 37°57' W 122°30'720.3
2017-Oct-12 02:31N 37°52' W 122°24'1 2.3
2017-Oct-12 02:00N 37°50' W 122°25'815.6
2017-Oct-12 01:30N 37°57' W 122°30'1020.9
2017-Oct-12 01:00N 37°48' W 122°24'2 4.4
2017-Oct-12 00:30N 37°50' W 122°24'816.7
2017-Oct-12 00:00N 37°57' W 122°30'1020.8
2017-Oct-11 23:30N 37°48' W 122°24'3 5.9
2017-Oct-11 23:01N 37°51' W 122°25'815.3
2017-Oct-11 22:30N 37°57' W 122°30'1021.0
2017-Oct-11 22:01N 37°48' W 122°24'612.7
2017-Oct-11 21:31N 37°54' W 122°27'4 8.7
2017-Oct-11 21:01N 37°57' W 122°31'0 0.0
2017-Oct-11 20:30N 37°57' W 122°31'0 0.0
2017-Oct-11 20:01N 37°57' W 122°31'0 0.0
2017-Oct-11 19:30N 37°57' W 122°31'0 0.0
2017-Oct-11 19:00N 37°57' W 122°31'0 0.0
2017-Oct-11 18:31N 37°57' W 122°31'1020.1
2017-Oct-11 18:01N 37°49' W 122°23'4 9.0
2017-Oct-11 17:31N 37°53' W 122°26'611.3
2017-Oct-11 17:01N 37°57' W 122°31'10 0.6
2017-Oct-11 00:01N 37°48' W 122°23'1020.7
2017-Oct-10 23:30N 37°57' W 122°30'1020.8
2017-Oct-10 23:00N 37°48' W 122°24'713.8
2017-Oct-10 22:30N 37°54' W 122°27'4 7.7
2017-Oct-10 22:00N 37°57' W 122°31'0 0.0
2017-Oct-10 21:30N 37°57' W 122°31'0 0.0
2017-Oct-10 21:00N 37°57' W 122°31'0 0.0
2017-Oct-10 20:30N 37°57' W 122°31'0 0.0
2017-Oct-10 20:00N 37°57' W 122°31'0 0.0
2017-Oct-10 19:30N 37°57' W 122°31'0 0.0
2017-Oct-10 19:00N 37°57' W 122°31'0 0.0
2017-Oct-10 18:30N 37°57' W 122°31'0 0.0
2017-Oct-10 18:00N 37°57' W 122°31'0 0.0
2017-Oct-10 17:30N 37°57' W 122°31'0 0.0
2017-Oct-10 17:00N 37°57' W 122°31'815.2
2017-Oct-10 16:31N 37°51' W 122°24'4 7.0
2017-Oct-10 16:00N 37°54' W 122°27'3 6.8
2017-Oct-10 15:30N 37°56' W 122°30'1019.7
2017-Oct-10 15:01N 37°48' W 122°24'11 3.6
2017-Oct-10 12:06N 37°57' W 122°31'0 0.0
2017-Oct-10 12:00N 37°57' W 122°31'0 0.0
2017-Oct-10 11:30N 37°57' W 122°31'0 0.0
2017-Oct-10 11:00N 37°57' W 122°31'0 0.0
2017-Oct-10 10:19N 37°57' W 122°31'0 0.0
2017-Oct-10 09:51N 37°57' W 122°31'0 0.0
2017-Oct-10 09:26N 37°57' W 122°31'0 0.0
2017-Oct-10 09:00N 37°57' W 122°31'0 0.0
2017-Oct-10 08:30N 37°57' W 122°31'0 0.0
2017-Oct-10 07:56N 37°57' W 122°31'0 0.0
2017-Oct-10 07:30N 37°57' W 122°31'0 0.0
2017-Oct-10 07:00N 37°57' W 122°31'0 0.0
2017-Oct-10 06:30N 37°57' W 122°31'0 0.0
2017-Oct-10 06:00N 37°57' W 122°31'0 0.0
2017-Oct-10 05:30N 37°57' W 122°31'0 0.0
2017-Oct-10 05:00N 37°57' W 122°31'0 0.0
2017-Oct-10 04:30N 37°57' W 122°31'0 0.0
2017-Oct-10 04:00N 37°57' W 122°31'0 0.0
2017-Oct-10 03:29N 37°57' W 122°31'0 0.0
2017-Oct-10 03:00N 37°57' W 122°31'0 0.0
2017-Oct-10 02:05N 37°57' W 122°31'0 0.0
2017-Oct-10 02:00N 37°57' W 122°31'0 0.0
2017-Oct-10 01:28N 37°57' W 122°31'0 0.2
2017-Oct-10 00:59N 37°57' W 122°30'1021.6
2017-Oct-10 00:31N 37°48' W 122°24'1 2.8
2017-Oct-10 00:01N 37°49' W 122°23'1019.0
2017-Oct-09 23:30N 37°57' W 122°30'1021.0
2017-Oct-09 23:00N 37°48' W 122°24'612.4
2017-Oct-09 22:30N 37°54' W 122°26'5 9.4
2017-Oct-09 22:00N 37°57' W 122°31'0 0.0
2017-Oct-09 21:30N 37°57' W 122°31'0 0.0
2017-Oct-09 20:59N 37°57' W 122°31'0 0.0
2017-Oct-09 20:30N 37°57' W 122°31'0 0.0
2017-Oct-09 20:00N 37°57' W 122°31'0 0.0
2017-Oct-09 19:30N 37°57' W 122°31'0 0.0
2017-Oct-09 19:00N 37°57' W 122°31'0 0.0
2017-Oct-09 18:30N 37°57' W 122°31'1020.6
2017-Oct-09 18:01N 37°48' W 122°23'3 6.8
2017-Oct-09 17:30N 37°51' W 122°25'713.3
2017-Oct-09 17:00N 37°57' W 122°30'715.0
2017-Oct-09 16:31N 37°51' W 122°24'  
Track history (hours):
 
Tides and Currents Weather Stations Pressure Air Temp Water Temp Dewpoint Dewpoint Depression Visibility Wind Speed Wind Dir Waves Ship Positions

Mendocino

Owner: Golden Gate Bridge Hwy & Transp Dist., Larkspur, CA. More information available from US FCC via Universal Licensing System and Coast Guard Vessel Documentation Center.

Last reported at 2017-Oct-19 16:31 UTC. Time now 2017-Oct-19 16:56 UTC.
Position N 37°48' W 122°24'.

Length 48 m.

Type: Ship. MMSI: 366970020.

Date/timePositionNaut miles runAvg speedWind from/ knotsBaromVisibWave heightAir tempDewpointWater temp
2017-Oct-19 16:31N 37°48' W 122°24'918.2
2017-Oct-19 16:01N 37°56' W 122°29'0 0.5
2017-Oct-19 15:30N 37°56' W 122°28'917.7
2017-Oct-19 15:01N 37°48' W 122°23'1020.2
2017-Oct-19 14:30N 37°57' W 122°30'0 0.1
2017-Oct-19 14:00N 37°57' W 122°31'0 0.0
2017-Oct-19 00:59N 37°57' W 122°30'1021.5
2017-Oct-19 00:30N 37°48' W 122°24'1 2.8
2017-Oct-19 00:01N 37°49' W 122°24'918.5
2017-Oct-18 23:30N 37°57' W 122°30'1020.9
2017-Oct-18 23:00N 37°48' W 122°24'4 7.8
2017-Oct-18 22:31N 37°52' W 122°25'710.6
2017-Oct-18 21:51N 37°57' W 122°31'0 0.0
2017-Oct-18 21:28N 37°57' W 122°31'0 0.0
2017-Oct-18 20:51N 37°57' W 122°31'0 0.0
2017-Oct-18 20:30N 37°57' W 122°31'0 0.0
2017-Oct-18 16:57N 37°57' W 122°31'920.7
2017-Oct-18 16:31N 37°49' W 122°24'611.9
2017-Oct-18 16:00N 37°55' W 122°27'1 2.8
2017-Oct-18 15:31N 37°56' W 122°28'917.5
2017-Oct-18 15:01N 37°48' W 122°23'1110.5
2017-Oct-18 14:00N 37°57' W 122°31'0 0.0
2017-Oct-18 01:22N 37°57' W 122°31'0 0.2
2017-Oct-18 01:00N 37°57' W 122°30'918.7
2017-Oct-18 00:31N 37°49' W 122°23'0 1.0
2017-Oct-18 00:01N 37°49' W 122°24'918.4
2017-Oct-17 23:30N 37°57' W 122°30'1021.0
2017-Oct-17 23:01N 37°48' W 122°24'0 0.9
2017-Oct-17 22:30N 37°48' W 122°23'1020.2
2017-Oct-17 22:00N 37°57' W 122°30'0 0.4
2017-Oct-17 21:30N 37°57' W 122°30'0 0.0
2017-Oct-17 21:00N 37°57' W 122°30'1020.8
2017-Oct-17 20:31N 37°48' W 122°23'4 8.6
2017-Oct-17 20:01N 37°52' W 122°25'612.5
2017-Oct-17 19:30N 37°57' W 122°30'0 0.0
2017-Oct-17 19:00N 37°57' W 122°30'0 0.0
2017-Oct-17 18:30N 37°57' W 122°30'1021.0
2017-Oct-17 18:00N 37°48' W 122°24'611.1
2017-Oct-17 17:31N 37°53' W 122°26'510.4
2017-Oct-17 17:00N 37°57' W 122°30'816.5
2017-Oct-17 16:31N 37°50' W 122°24'4 8.5
2017-Oct-17 16:01N 37°54' W 122°27'3 6.8
2017-Oct-17 15:30N 37°56' W 122°30'1019.9
2017-Oct-17 15:01N 37°48' W 122°24'1020.7
2017-Oct-17 14:30N 37°57' W 122°30'0 0.1
2017-Oct-17 14:00N 37°57' W 122°31'0 0.1
2017-Oct-17 13:31N 37°57' W 122°31'0 0.0
2017-Oct-17 13:00N 37°57' W 122°31'0 0.0
2017-Oct-17 12:30N 37°57' W 122°31'0 0.0
2017-Oct-17 12:00N 37°57' W 122°31'0 0.0
2017-Oct-17 11:30N 37°57' W 122°31'0 0.0
2017-Oct-17 11:00N 37°57' W 122°31'0 0.0
2017-Oct-17 10:30N 37°57' W 122°31'0 0.0
2017-Oct-17 10:01N 37°57' W 122°31'0 0.0
2017-Oct-17 09:31N 37°57' W 122°31'0 0.0
2017-Oct-17 09:00N 37°57' W 122°31'0 0.0
2017-Oct-17 08:30N 37°57' W 122°31'0 0.0
2017-Oct-17 08:01N 37°57' W 122°31'0 0.0
2017-Oct-17 07:31N 37°57' W 122°31'0 0.0
2017-Oct-17 07:00N 37°57' W 122°31'0 0.0
2017-Oct-17 06:30N 37°57' W 122°31'0 0.0
2017-Oct-17 06:00N 37°57' W 122°31'0 0.0
2017-Oct-17 05:30N 37°57' W 122°31'0 0.0
2017-Oct-17 05:00N 37°57' W 122°31'0 0.0
2017-Oct-17 04:30N 37°57' W 122°31'0 0.0
2017-Oct-17 04:00N 37°57' W 122°31'0 0.0
2017-Oct-17 03:30N 37°57' W 122°31'0 0.0
2017-Oct-17 03:01N 37°57' W 122°31'0 0.0
2017-Oct-17 02:30N 37°57' W 122°31'0 0.0
2017-Oct-17 02:00N 37°57' W 122°31'0 0.0
2017-Oct-17 01:30N 37°57' W 122°31'0 0.1
2017-Oct-17 01:00N 37°57' W 122°30'1019.7
2017-Oct-17 00:31N 37°49' W 122°23'1 2.6
2017-Oct-17 00:01N 37°50' W 122°24'816.7
2017-Oct-16 23:30N 37°57' W 122°30'1020.6
2017-Oct-16 23:01N 37°48' W 122°24'918.0
2017-Oct-16 22:31N 37°56' W 122°29'2 3.6
2017-Oct-16 22:00N 37°57' W 122°31'0 0.0
2017-Oct-16 21:30N 37°57' W 122°31'0 0.0
2017-Oct-16 21:01N 37°57' W 122°31'0 0.0
2017-Oct-16 20:30N 37°57' W 122°31'0 0.0
2017-Oct-16 20:00N 37°57' W 122°31'0 0.0
2017-Oct-16 19:30N 37°57' W 122°31'0 0.0
2017-Oct-16 19:00N 37°57' W 122°31'0 0.0
2017-Oct-16 18:30N 37°57' W 122°31'0 0.0
2017-Oct-16 18:00N 37°57' W 122°31'0 0.1
2017-Oct-16 17:30N 37°57' W 122°30'611.6
2017-Oct-16 17:01N 37°53' W 122°25'611.2
2017-Oct-16 16:31N 37°47' W 122°23'816.4
2017-Oct-16 16:01N 37°55' W 122°28'2 4.7
2017-Oct-16 15:31N 37°56' W 122°30'1019.7
2017-Oct-16 15:01N 37°48' W 122°23'1010.5
2017-Oct-16 14:00N 37°57' W 122°31'  
2017-Oct-14 04:34N 37°57' W 122°31'0 0.0
2017-Oct-14 04:30N 37°57' W 122°31'0 0.2
2017-Oct-14 04:00N 37°57' W 122°30'0 0.1
2017-Oct-14 03:31N 37°57' W 122°31'0 0.0
2017-Oct-14 03:01N 37°57' W 122°31'0 0.0
2017-Oct-14 02:31N 37°57' W 122°31'0 0.0
2017-Oct-14 02:00N 37°57' W 122°31'0 0.0
2017-Oct-14 01:30N 37°57' W 122°31'0 0.5
2017-Oct-14 01:00N 37°57' W 122°30'1020.6
2017-Oct-14 00:30N 37°48' W 122°24'611.5
2017-Oct-14 00:00N 37°53' W 122°26'5 8.9
2017-Oct-13 23:29N 37°56' W 122°30'1021.1
2017-Oct-13 23:00N 37°48' W 122°24'917.8
2017-Oct-13 22:31N 37°56' W 122°28'2 3.7
2017-Oct-13 22:00N 37°57' W 122°30'0 0.2
2017-Oct-13 21:30N 37°57' W 122°31'0 0.0
2017-Oct-13 21:00N 37°57' W 122°31'0 0.0
2017-Oct-13 20:30N 37°57' W 122°31'0 0.0
2017-Oct-13 20:00N 37°57' W 122°31'0 0.0
2017-Oct-13 19:30N 37°57' W 122°31'0 0.0
2017-Oct-13 19:00N 37°57' W 122°31'0 0.0
2017-Oct-13 18:30N 37°57' W 122°31'0 0.0
2017-Oct-13 18:00N 37°57' W 122°31'0 0.1
2017-Oct-13 17:30N 37°57' W 122°30'0 0.1
2017-Oct-13 17:00N 37°57' W 122°31'917.5
2017-Oct-13 16:31N 37°50' W 122°24'510.7
2017-Oct-13 16:01N 37°55' W 122°27'3 5.4
2017-Oct-13 15:30N 37°56' W 122°30'1020.2
2017-Oct-13 15:00N 37°48' W 122°24'1021.0
2017-Oct-13 14:30N 37°57' W 122°30'0 0.0
2017-Oct-13 01:15N 37°57' W 122°31'0 0.3
2017-Oct-13 01:00N 37°57' W 122°30'1021.0
2017-Oct-13 00:31N 37°48' W 122°24'3 6.2
2017-Oct-13 00:01N 37°51' W 122°24'814.9
2017-Oct-12 23:30N 37°57' W 122°30'1021.2
2017-Oct-12 23:01N 37°48' W 122°24'611.4
2017-Oct-12 22:31N 37°53' W 122°26'510.1
2017-Oct-12 22:00N 37°57' W 122°30'0 0.2
2017-Oct-12 21:30N 37°57' W 122°31'0 0.0
2017-Oct-12 20:58N 37°57' W 122°31'0 0.0
2017-Oct-12 20:30N 37°57' W 122°31'0 0.0
2017-Oct-12 20:00N 37°57' W 122°31'0 0.0
2017-Oct-12 19:30N 37°57' W 122°31'0 0.0
2017-Oct-12 19:00N 37°57' W 122°31'0 0.0
2017-Oct-12 18:30N 37°57' W 122°31'0 0.0
2017-Oct-12 18:00N 37°57' W 122°31'0 0.1
2017-Oct-12 17:30N 37°57' W 122°30'0 0.1
2017-Oct-12 17:00N 37°57' W 122°31'1020.0
2017-Oct-12 16:31N 37°49' W 122°23'714.5
2017-Oct-12 16:01N 37°55' W 122°28'2 4.7
2017-Oct-12 15:30N 37°56' W 122°30'1020.0
2017-Oct-12 15:00N 37°48' W 122°24'1020.9
2017-Oct-12 14:30N 37°57' W 122°30'0 0.1
2017-Oct-12 14:00N 37°57' W 122°31'0 0.0
2017-Oct-12 02:52N 37°57' W 122°30'720.3
2017-Oct-12 02:31N 37°52' W 122°24'1 2.3
2017-Oct-12 02:00N 37°50' W 122°25'815.6
2017-Oct-12 01:30N 37°57' W 122°30'1020.9
2017-Oct-12 01:00N 37°48' W 122°24'2 4.4
2017-Oct-12 00:30N 37°50' W 122°24'816.7
2017-Oct-12 00:00N 37°57' W 122°30'1020.8
2017-Oct-11 23:30N 37°48' W 122°24'3 5.9
2017-Oct-11 23:01N 37°51' W 122°25'815.3
2017-Oct-11 22:30N 37°57' W 122°30'1021.0
2017-Oct-11 22:01N 37°48' W 122°24'612.7
2017-Oct-11 21:31N 37°54' W 122°27'4 8.7
2017-Oct-11 21:01N 37°57' W 122°31'0 0.0
2017-Oct-11 20:30N 37°57' W 122°31'0 0.0
2017-Oct-11 20:01N 37°57' W 122°31'0 0.0
2017-Oct-11 19:30N 37°57' W 122°31'0 0.0
2017-Oct-11 19:00N 37°57' W 122°31'0 0.0
2017-Oct-11 18:31N 37°57' W 122°31'1020.1
2017-Oct-11 18:01N 37°49' W 122°23'4 9.0
2017-Oct-11 17:31N 37°53' W 122°26'611.3
2017-Oct-11 17:01N 37°57' W 122°31'10 0.6
2017-Oct-11 00:01N 37°48' W 122°23'1020.7
2017-Oct-10 23:30N 37°57' W 122°30'1020.8
2017-Oct-10 23:00N 37°48' W 122°24'713.8
2017-Oct-10 22:30N 37°54' W 122°27'4 7.7
2017-Oct-10 22:00N 37°57' W 122°31'0 0.0
2017-Oct-10 21:30N 37°57' W 122°31'0 0.0
2017-Oct-10 21:00N 37°57' W 122°31'0 0.0
2017-Oct-10 20:30N 37°57' W 122°31'0 0.0
2017-Oct-10 20:00N 37°57' W 122°31'0 0.0
2017-Oct-10 19:30N 37°57' W 122°31'0 0.0
2017-Oct-10 19:00N 37°57' W 122°31'0 0.0
2017-Oct-10 18:30N 37°57' W 122°31'0 0.0
2017-Oct-10 18:00N 37°57' W 122°31'0 0.0
2017-Oct-10 17:30N 37°57' W 122°31'0 0.0
2017-Oct-10 17:00N 37°57' W 122°31'815.2
2017-Oct-10 16:31N 37°51' W 122°24'4 7.0
2017-Oct-10 16:00N 37°54' W 122°27'3 6.8
2017-Oct-10 15:30N 37°56' W 122°30'1019.7
2017-Oct-10 15:01N 37°48' W 122°24'11 3.6
2017-Oct-10 12:06N 37°57' W 122°31'0 0.0
2017-Oct-10 12:00N 37°57' W 122°31'0 0.0
2017-Oct-10 11:30N 37°57' W 122°31'0 0.0
2017-Oct-10 11:00N 37°57' W 122°31'0 0.0
2017-Oct-10 10:19N 37°57' W 122°31'0 0.0
2017-Oct-10 09:51N 37°57' W 122°31'0 0.0
2017-Oct-10 09:26N 37°57' W 122°31'0 0.0
2017-Oct-10 09:00N 37°57' W 122°31'0 0.0
2017-Oct-10 08:30N 37°57' W 122°31'0 0.0
2017-Oct-10 07:56N 37°57' W 122°31'0 0.0
2017-Oct-10 07:30N 37°57' W 122°31'0 0.0
2017-Oct-10 07:00N 37°57' W 122°31'0 0.0
2017-Oct-10 06:30N 37°57' W 122°31'0 0.0
2017-Oct-10 06:00N 37°57' W 122°31'0 0.0
2017-Oct-10 05:30N 37°57' W 122°31'0 0.0
2017-Oct-10 05:00N 37°57' W 122°31'0 0.0
2017-Oct-10 04:30N 37°57' W 122°31'0 0.0
2017-Oct-10 04:00N 37°57' W 122°31'0 0.0
2017-Oct-10 03:29N 37°57' W 122°31'0 0.0
2017-Oct-10 03:00N 37°57' W 122°31'0 0.0
2017-Oct-10 02:05N 37°57' W 122°31'0 0.0
2017-Oct-10 02:00N 37°57' W 122°31'0 0.0
2017-Oct-10 01:28N 37°57' W 122°31'0 0.2
2017-Oct-10 00:59N 37°57' W 122°30'1021.6
2017-Oct-10 00:31N 37°48' W 122°24'1 2.8
2017-Oct-10 00:01N 37°49' W 122°23'1019.0
2017-Oct-09 23:30N 37°57' W 122°30'1021.0
2017-Oct-09 23:00N 37°48' W 122°24'612.4
2017-Oct-09 22:30N 37°54' W 122°26'5 9.4
2017-Oct-09 22:00N 37°57' W 122°31'0 0.0
2017-Oct-09 21:30N 37°57' W 122°31'0 0.0
2017-Oct-09 20:59N 37°57' W 122°31'0 0.0
2017-Oct-09 20:30N 37°57' W 122°31'0 0.0
2017-Oct-09 20:00N 37°57' W 122°31'0 0.0
2017-Oct-09 19:30N 37°57' W 122°31'0 0.0
2017-Oct-09 19:00N 37°57' W 122°31'0 0.0
2017-Oct-09 18:30N 37°57' W 122°31'1020.6
2017-Oct-09 18:01N 37°48' W 122°23'3 6.8
2017-Oct-09 17:30N 37°51' W 122°25'713.3
2017-Oct-09 17:00N 37°57' W 122°30'715.0
2017-Oct-09 16:31N 37°51' W 122°24'  

Dump ship's entire track history